Time;durP1;ratioP1;P1;durP2;ratioP2;P2;SDS_P1;SDS_P2;PMS_P1;PMS_P2;Temp;Humidity;BMP_temperature;BMP_pressure;BME280_temperature;BME280_humidity;BME280_pressure;Samples;Min_cycle;Max_cycle;Signal;HPM_P1;HPM_P2
2022/08/22 00:01:04;;;;;;;9.15;4.03;;;20.10;99.90;;;;;;4994981;28;20188;-46
2022/08/22 00:03:58;;;;;;;4.25;2.70;;;20.10;99.90;;;;;;4992324;28;20191;-46
2022/08/22 00:07:01;;;;;;;6.07;2.55;;;20.10;99.90;;;;;;5044407;28;20642;-46
2022/08/22 00:09:32;;;;;;;5.18;2.85;;;20.00;99.90;;;;;;5054139;28;20170;-48
2022/08/22 00:12:07;;;;;;;5.35;2.55;;;20.00;99.90;;;;;;5054037;28;20206;-46
2022/08/22 00:14:52;;;;;;;5.55;2.33;;;20.00;99.90;;;;;;5053950;28;20220;-48
2022/08/22 00:17:53;;;;;;;6.00;2.83;;;20.00;99.90;;;;;;5054025;28;20159;-46
2022/08/22 00:20:29;;;;;;;5.18;2.03;;;19.90;99.90;;;;;;5054143;28;20596;-47
2022/08/22 00:23:03;;;;;;;8.93;2.25;;;19.70;99.90;;;;;;5054018;28;20282;-51
2022/08/22 00:25:34;;;;;;;5.10;2.40;;;19.80;99.90;;;;;;5053807;28;20173;-50
2022/08/22 00:28:12;;;;;;;4.45;2.22;;;19.70;99.90;;;;;;5052575;28;20261;-51
2022/08/22 00:31:06;;;;;;;4.63;2.22;;;19.80;99.90;;;;;;5053897;28;20163;-49
2022/08/22 00:34:10;;;;;;;3.95;2.13;;;19.70;99.90;;;;;;5053850;28;20190;-49
2022/08/22 00:36:45;;;;;;;5.78;2.55;;;19.70;99.90;;;;;;5042523;28;20638;-50
2022/08/22 00:39:19;;;;;;;12.15;2.47;;;19.60;99.90;;;;;;5053972;28;20166;-49
2022/08/22 00:42:00;;;;;;;4.43;2.28;;;19.70;99.90;;;;;;5053519;28;20158;-47
2022/08/22 00:44:45;;;;;;;4.50;2.10;;;19.60;99.90;;;;;;5053592;28;20641;-47
2022/08/22 00:47:17;;;;;;;5.82;2.10;;;19.60;99.90;;;;;;5053830;28;20175;-50
2022/08/22 00:50:19;;;;;;;3.25;1.98;;;19.70;99.90;;;;;;5053766;28;20166;-49
2022/08/22 00:53:11;;;;;;;3.85;2.30;;;19.60;99.90;;;;;;5053582;28;20176;-48
2022/08/22 00:56:19;;;;;;;3.35;2.58;;;19.60;99.90;;;;;;5053204;28;20289;-48
2022/08/22 00:59:03;;;;;;;7.80;2.38;;;19.50;99.90;;;;;;5053085;28;20162;-47
2022/08/22 01:01:35;;;;;;;3.97;3.00;;;19.40;99.90;;;;;;5053327;28;20194;-49
2022/08/22 01:04:13;;;;;;;5.75;2.60;;;19.30;99.90;;;;;;5053154;28;20533;-47
2022/08/22 01:06:50;;;;;;;4.05;2.45;;;19.40;99.90;;;;;;5053336;28;20166;-48
2022/08/22 01:09:26;;;;;;;4.13;2.55;;;19.30;99.90;;;;;;5053049;28;20166;-47
2022/08/22 01:12:18;;;;;;;7.15;2.78;;;19.30;99.90;;;;;;5052800;28;20170;-47
2022/08/22 01:14:57;;;;;;;4.70;2.30;;;19.30;99.90;;;;;;5051457;28;20202;-48
2022/08/22 01:17:40;;;;;;;5.43;2.38;;;19.20;99.90;;;;;;5052852;28;20584;-48
2022/08/22 01:20:21;;;;;;;3.85;2.53;;;19.20;99.90;;;;;;5053010;28;20159;-48
2022/08/22 01:23:22;;;;;;;7.60;3.38;;;19.20;99.90;;;;;;5052776;28;20163;-48
2022/08/22 01:26:09;;;;;;;4.72;2.40;;;19.20;99.90;;;;;;5052732;28;20181;-49
2022/08/22 01:29:08;;;;;;;3.67;2.00;;;19.20;99.90;;;;;;5052675;28;20212;-49
2022/08/22 01:32:01;;;;;;;6.30;3.30;;;19.10;99.90;;;;;;5052539;28;20655;-50
2022/08/22 01:34:51;;;;;;;5.43;2.53;;;19.10;99.90;;;;;;5052132;28;20228;-48
2022/08/22 01:37:39;;;;;;;4.60;2.65;;;19.10;99.90;;;;;;5052526;28;20204;-49
2022/08/22 01:40:29;;;;;;;9.13;2.83;;;19.00;99.90;;;;;;5052463;28;20171;-49
2022/08/22 01:43:02;;;;;;;10.85;3.33;;;19.00;99.90;;;;;;5052274;28;20265;-49
2022/08/22 01:45:50;;;;;;;5.60;2.83;;;19.00;99.90;;;;;;5052427;28;20171;-49
2022/08/22 01:48:15;;;;;;;4.82;2.53;;;19.00;99.90;;;;;;5052219;28;20645;-49
2022/08/22 01:50:56;;;;;;;5.68;2.78;;;19.00;99.90;;;;;;5052567;28;20171;-50
2022/08/22 01:53:37;;;;;;;2.80;2.20;;;18.90;99.90;;;;;;5051987;28;20193;-48
2022/08/22 01:56:10;;;;;;;6.30;2.65;;;18.90;99.90;;;;;;5052112;28;20228;-48
2022/08/22 01:58:44;;;;;;;5.00;2.75;;;18.80;99.90;;;;;;5052141;28;20212;-50
2022/08/22 02:01:22;;;;;;;3.88;2.40;;;18.80;99.90;;;;;;5052441;28;20167;-47
2022/08/22 02:04:03;;;;;;;4.50;2.70;;;18.80;99.90;;;;;;5052139;28;20208;-49
2022/08/22 02:06:44;;;;;;;7.15;2.92;;;18.80;99.90;;;;;;5051930;28;20170;-48
2022/08/22 02:09:19;;;;;;;4.32;2.45;;;18.80;99.90;;;;;;5052364;28;20626;-48
2022/08/22 02:12:15;;;;;;;4.07;2.53;;;18.80;99.90;;;;;;5051742;28;20170;-48
2022/08/22 02:14:58;;;;;;;4.57;2.67;;;18.80;99.90;;;;;;5052045;28;20210;-49
2022/08/22 02:17:30;;;;;;;5.78;2.58;;;18.80;99.90;;;;;;5051923;28;20174;-49
2022/08/22 02:20:19;;;;;;;2.85;2.25;;;18.80;99.90;;;;;;5051810;28;20609;-50
2022/08/22 02:23:03;;;;;;;4.20;2.75;;;18.70;99.90;;;;;;5051820;28;20657;-48
2022/08/22 02:25:53;;;;;;;3.78;2.65;;;18.60;99.90;;;;;;5051994;28;20277;-49
2022/08/22 02:28:57;;;;;;;6.63;2.90;;;18.60;99.90;;;;;;5051353;28;20241;-49
2022/08/22 02:31:32;;;;;;;5.40;2.65;;;18.50;99.90;;;;;;5044043;28;20190;-50
2022/08/22 02:34:01;;;;;;;6.13;3.03;;;18.40;99.90;;;;;;5051574;28;20560;-50
2022/08/22 02:36:53;;;;;;;3.60;3.13;;;18.40;99.90;;;;;;5051926;28;20253;-49
2022/08/22 02:39:40;;;;;;;7.85;2.75;;;18.30;99.90;;;;;;5051591;28;20162;-49
2022/08/22 02:42:24;;;;;;;8.70;3.25;;;18.30;99.90;;;;;;5051568;28;20182;-46
2022/08/22 02:45:29;;;;;;;4.72;2.60;;;18.30;99.90;;;;;;5051854;28;20171;-46
2022/08/22 02:48:25;;;;;;;4.00;3.30;;;18.20;99.90;;;;;;5051462;28;20240;-46
2022/08/22 02:50:57;;;;;;;3.08;2.78;;;18.20;99.90;;;;;;5051472;28;20174;-47
2022/08/22 02:53:43;;;;;;;6.10;3.00;;;18.20;99.90;;;;;;5051557;28;20166;-47
2022/08/22 02:56:16;;;;;;;4.82;3.10;;;18.30;99.90;;;;;;5050909;28;20659;-47
2022/08/22 02:58:58;;;;;;;6.38;2.63;;;18.20;99.90;;;;;;5051692;28;20171;-48
2022/08/22 03:01:26;;;;;;;4.60;3.53;;;18.30;99.90;;;;;;5050166;28;20175;-47
2022/08/22 03:04:30;;;;;;;8.45;3.20;;;18.20;99.90;;;;;;5052499;28;20296;-47
2022/08/22 03:07:20;;;;;;;5.53;3.20;;;18.20;99.90;;;;;;5055377;28;20248;-49
2022/08/22 03:10:09;;;;;;;7.50;3.10;;;18.10;99.90;;;;;;5055358;28;20167;-46
2022/08/22 03:13:06;;;;;;;6.78;3.20;;;18.10;99.90;;;;;;5055212;28;20229;-48
2022/08/22 03:15:50;;;;;;;5.68;3.22;;;18.10;99.90;;;;;;5055104;28;20356;-46
2022/08/22 03:18:22;;;;;;;4.57;3.05;;;18.10;99.90;;;;;;5055240;28;20193;-47
2022/08/22 03:21:23;;;;;;;6.03;3.28;;;18.10;99.90;;;;;;5053844;28;20170;-46
2022/08/22 03:23:55;;;;;;;4.65;3.13;;;18.00;99.90;;;;;;5055023;28;20171;-47
2022/08/22 03:27:03;;;;;;;7.70;3.55;;;17.90;99.90;;;;;;5055077;28;20198;-46
2022/08/22 03:29:34;;;;;;;6.38;3.47;;;17.90;99.90;;;;;;5044721;28;20235;-48
2022/08/22 03:32:13;;;;;;;4.50;2.97;;;18.00;99.90;;;;;;5054842;28;20162;-46
2022/08/22 03:35:00;;;;;;;7.85;3.58;;;18.10;99.90;;;;;;5055165;28;20210;-47
2022/08/22 03:37:41;;;;;;;7.25;3.30;;;18.00;99.90;;;;;;5055063;28;20167;-46
2022/08/22 03:40:19;;;;;;;5.95;3.25;;;18.00;99.90;;;;;;5055475;28;20521;-46
2022/08/22 03:43:07;;;;;;;5.57;3.08;;;18.10;99.90;;;;;;5053441;28;20507;-46
2022/08/22 03:45:33;;;;;;;9.20;3.42;;;18.10;99.90;;;;;;5054897;28;20174;-47
2022/08/22 03:48:08;;;;;;;5.55;3.10;;;18.10;99.90;;;;;;5054872;28;20174;-47
2022/08/22 03:51:07;;;;;;;5.32;3.00;;;18.20;99.90;;;;;;5054617;28;20198;-49
2022/08/22 03:53:49;;;;;;;7.85;3.30;;;18.10;99.90;;;;;;5052740;28;20541;-49
2022/08/22 03:56:33;;;;;;;6.30;3.35;;;18.10;99.90;;;;;;5054460;28;20206;-47
2022/08/22 03:59:10;;;;;;;5.07;3.53;;;18.10;99.90;;;;;;5054616;28;20689;-49
2022/08/22 04:02:05;;;;;;;8.98;3.88;;;18.10;99.90;;;;;;5054347;28;20171;-49
2022/08/22 04:04:39;;;;;;;7.15;3.72;;;18.00;99.90;;;;;;5054371;28;20217;-49
2022/08/22 04:07:49;;;;;;;5.72;3.10;;;18.10;99.90;;;;;;5054310;28;20174;-48
2022/08/22 04:10:25;;;;;;;4.75;3.08;;;18.00;99.90;;;;;;5015445;28;20697;-48
2022/08/22 04:13:26;;;;;;;6.40;3.42;;;18.00;99.90;;;;;;5015353;28;20222;-49
2022/08/22 04:16:04;;;;;;;6.65;3.28;;;17.90;99.90;;;;;;5048135;28;20582;-49
2022/08/22 04:18:58;;;;;;;5.72;3.30;;;17.90;99.90;;;;;;5054247;28;20178;-48
2022/08/22 04:21:51;;;;;;;6.47;3.83;;;17.80;99.90;;;;;;5054008;28;20167;-50
2022/08/22 04:24:50;;;;;;;7.88;4.13;;;17.80;99.90;;;;;;5053955;28;20170;-50
2022/08/22 04:27:19;;;;;;;7.68;4.00;;;17.70;99.90;;;;;;5053831;28;20166;-49
2022/08/22 04:29:54;;;;;;;6.18;4.05;;;17.60;99.90;;;;;;5053890;28;20242;-50
2022/08/22 04:32:26;;;;;;;5.50;3.72;;;17.60;99.90;;;;;;5053874;28;20189;-49
2022/08/22 04:35:05;;;;;;;4.53;3.55;;;17.60;99.90;;;;;;5053715;28;20224;-48
2022/08/22 04:37:46;;;;;;;6.40;3.35;;;17.70;99.90;;;;;;5053659;28;20524;-49
2022/08/22 04:40:41;;;;;;;7.53;3.83;;;17.60;99.90;;;;;;5053917;28;20178;-48
2022/08/22 04:43:32;;;;;;;6.20;3.42;;;17.60;99.90;;;;;;5053855;28;20201;-49
2022/08/22 04:46:18;;;;;;;8.82;3.67;;;17.60;99.90;;;;;;5053537;28;20236;-48
2022/08/22 04:48:54;;;;;;;9.57;4.22;;;17.60;99.90;;;;;;5053286;28;20257;-49
2022/08/22 04:51:30;;;;;;;8.02;4.18;;;17.60;99.90;;;;;;5053523;28;20170;-49
2022/08/22 04:54:24;;;;;;;6.63;3.97;;;17.60;99.90;;;;;;5053221;28;20167;-48
2022/08/22 04:57:23;;;;;;;13.40;4.30;;;17.60;99.90;;;;;;5053375;28;20170;-48
2022/08/22 04:59:49;;;;;;;4.60;4.07;;;17.60;99.90;;;;;;5053277;28;20691;-47
2022/08/22 05:02:26;;;;;;;14.63;3.70;;;17.60;99.90;;;;;;5053167;28;20594;-49
2022/08/22 05:05:04;;;;;;;6.72;3.90;;;17.70;99.90;;;;;;5053093;28;20170;-47
2022/08/22 05:07:40;;;;;;;12.82;4.43;;;17.70;99.90;;;;;;5053098;28;20270;-47
2022/08/22 05:10:15;;;;;;;10.35;4.50;;;17.70;99.90;;;;;;5053016;28;20626;-48
2022/08/22 05:12:56;;;;;;;7.60;4.10;;;17.70;99.90;;;;;;5053223;28;20217;-48
2022/08/22 05:15:28;;;;;;;7.63;4.55;;;17.80;99.90;;;;;;5051947;28;20214;-47
2022/08/22 05:18:00;;;;;;;8.57;4.03;;;17.90;99.90;;;;;;5052895;28;20170;-48
2022/08/22 05:20:27;;;;;;;10.57;4.25;;;17.80;99.90;;;;;;5052795;28;20166;-49
2022/08/22 05:23:02;;;;;;;9.82;4.70;;;17.70;99.90;;;;;;5052784;28;20167;-49
2022/08/22 05:25:32;;;;;;;7.72;4.40;;;17.70;99.90;;;;;;5052610;28;20188;-48
2022/08/22 05:28:21;;;;;;;9.02;4.38;;;17.80;99.90;;;;;;5052667;28;20170;-49
2022/08/22 05:30:47;;;;;;;6.22;3.83;;;17.90;99.90;;;;;;5052607;28;20162;-48
2022/08/22 05:33:13;;;;;;;7.30;4.20;;;18.00;99.90;;;;;;5052531;28;20681;-48
2022/08/22 05:35:43;;;;;;;12.55;3.67;;;18.00;99.90;;;;;;5052698;28;20206;-47
2022/08/22 05:38:14;;;;;;;6.43;3.53;;;18.00;99.90;;;;;;5052677;28;20162;-48
2022/08/22 05:40:41;;;;;;;6.25;3.72;;;17.80;99.90;;;;;;5052548;28;20178;-48
2022/08/22 05:43:11;;;;;;;4.72;3.60;;;17.80;99.90;;;;;;5052857;28;20231;-46
2022/08/22 05:45:43;;;;;;;6.20;3.95;;;17.90;99.90;;;;;;5053047;28;20175;-46
2022/08/22 05:48:17;;;;;;;5.82;3.92;;;18.00;99.90;;;;;;5052645;28;20171;-48
2022/08/22 05:50:55;;;;;;;6.15;3.72;;;18.00;99.90;;;;;;5052229;28;20194;-46
2022/08/22 05:53:31;;;;;;;10.35;4.63;;;18.00;99.90;;;;;;5052316;28;20243;-46
2022/08/22 05:56:06;;;;;;;7.97;4.63;;;18.10;99.90;;;;;;5052414;28;20205;-47
2022/08/22 05:58:38;;;;;;;8.63;4.35;;;18.10;99.90;;;;;;5052141;28;20166;-46
2022/08/22 06:01:10;;;;;;;8.70;4.43;;;18.20;99.90;;;;;;5052104;28;20246;-47
2022/08/22 06:03:48;;;;;;;8.40;4.60;;;18.30;99.90;;;;;;5052379;28;20308;-46
2022/08/22 06:06:17;;;;;;;9.23;4.22;;;18.40;99.90;;;;;;5052290;28;20244;-46
2022/08/22 06:09:31;;;;;;;11.82;5.10;;;18.50;99.90;;;;;;5051881;28;20228;-46
2022/08/22 06:12:03;;;;;;;8.52;4.45;;;18.50;99.90;;;;;;5049951;28;20232;-47
2022/08/22 06:14:32;;;;;;;11.15;4.88;;;18.50;99.90;;;;;;5051719;28;20560;-49
2022/08/22 06:17:28;;;;;;;6.93;4.15;;;18.50;99.90;;;;;;5051810;28;20171;-48
2022/08/22 06:19:54;;;;;;;11.65;4.72;;;18.50;99.90;;;;;;5051417;28;20588;-47
2022/08/22 06:22:24;;;;;;;9.57;4.88;;;18.50;99.90;;;;;;5051899;28;20174;-46
2022/08/22 06:24:52;;;;;;;8.80;4.53;;;18.50;99.90;;;;;;5051846;28;20653;-47
2022/08/22 06:27:21;;;;;;;6.60;4.63;;;18.70;99.90;;;;;;5051766;28;20163;-47
2022/08/22 06:29:54;;;;;;;9.60;5.15;;;18.70;99.90;;;;;;5051696;28;20273;-48
2022/08/22 06:32:25;;;;;;;7.00;5.05;;;19.00;99.90;;;;;;5051923;28;20179;-48
2022/08/22 06:34:55;;;;;;;10.77;4.85;;;18.90;99.90;;;;;;5051826;28;20294;-45
2022/08/22 06:37:36;;;;;;;10.02;5.20;;;19.30;99.90;;;;;;5051231;28;20193;-46
2022/08/22 06:40:05;;;;;;;17.65;5.18;;;19.30;99.90;;;;;;5051572;28;20186;-48
2022/08/22 06:42:32;;;;;;;13.40;5.30;;;19.60;99.90;;;;;;5051682;28;20798;-48
2022/08/22 06:45:15;;;;;;;8.48;4.95;;;19.80;99.90;;;;;;5051546;28;20158;-47
2022/08/22 06:47:50;;;;;;;5.90;4.45;;;19.90;99.90;;;;;;5051866;28;20167;-47
2022/08/22 06:50:22;;;;;;;13.93;5.57;;;19.90;99.90;;;;;;5051610;28;20260;-48
2022/08/22 06:52:56;;;;;;;14.65;5.10;;;20.10;99.90;;;;;;5051653;28;20178;-47
2022/08/22 06:55:25;;;;;;;8.30;5.25;;;20.30;99.90;;;;;;5051674;28;20214;-49
2022/08/22 06:58:02;;;;;;;13.43;5.15;;;20.30;99.90;;;;;;5051471;28;20155;-48
2022/08/22 07:00:31;;;;;;;13.68;4.68;;;20.50;99.90;;;;;;5051380;28;20181;-45
2022/08/22 07:03:06;;;;;;;10.00;4.53;;;20.50;99.90;;;;;;5051470;28;20167;-47
2022/08/22 07:05:37;;;;;;;8.25;4.85;;;20.60;99.90;;;;;;5051611;28;20170;-47
2022/08/22 07:08:12;;;;;;;7.32;4.88;;;20.80;99.90;;;;;;5051621;28;20171;-45
2022/08/22 07:10:43;;;;;;;11.80;5.20;;;21.00;99.90;;;;;;5051975;28;20193;-47
2022/08/22 07:13:15;;;;;;;7.60;4.22;;;21.20;99.90;;;;;;5051549;28;20256;-48
2022/08/22 07:15:41;;;;;;;8.65;4.82;;;21.30;99.90;;;;;;5051283;28;20202;-45
2022/08/22 07:18:13;;;;;;;9.20;4.38;;;21.50;99.90;;;;;;5051686;28;20257;-47
2022/08/22 07:20:43;;;;;;;7.80;4.88;;;21.70;99.90;;;;;;5051672;28;20575;-47
2022/08/22 07:23:12;;;;;;;8.43;4.38;;;21.90;99.90;;;;;;5051713;28;20171;-48
2022/08/22 07:26:10;;;;;;;8.43;4.55;;;22.00;99.90;;;;;;5051533;28;20175;-47
2022/08/22 07:28:50;;;;;;;9.27;4.35;;;22.10;99.90;;;;;;5051218;28;20183;-47
2022/08/22 07:31:34;;;;;;;7.68;4.07;;;22.10;99.90;;;;;;5051460;28;20171;-50
2022/08/22 07:34:30;;;;;;;9.65;3.97;;;22.00;99.90;;;;;;5051157;28;20551;-50
2022/08/22 07:37:09;;;;;;;8.80;3.47;;;22.20;99.90;;;;;;5051298;28;20205;-47
2022/08/22 07:39:45;;;;;;;9.50;4.95;;;22.50;99.90;;;;;;5051363;28;20583;-49
2022/08/22 07:42:16;;;;;;;11.18;4.00;;;22.80;99.90;;;;;;5051129;28;20165;-50
2022/08/22 07:45:14;;;;;;;12.90;4.30;;;23.00;99.90;;;;;;5051078;28;20183;-49
2022/08/22 07:48:08;;;;;;;9.05;4.25;;;23.20;99.90;;;;;;5050004;28;20694;-45
2022/08/22 07:50:47;;;;;;;8.57;3.67;;;23.50;99.90;;;;;;5052857;28;20175;-50
2022/08/22 07:53:26;;;;;;;11.30;4.30;;;23.70;99.90;;;;;;5054575;28;20163;-50
2022/08/22 07:55:54;;;;;;;11.38;4.15;;;23.90;99.90;;;;;;5054379;28;20217;-49
2022/08/22 07:58:22;;;;;;;8.10;3.85;;;24.10;99.90;;;;;;5054473;28;20575;-47
2022/08/22 08:00:49;;;;;;;7.13;3.72;;;24.10;99.90;;;;;;5054805;28;20568;-48
2022/08/22 08:03:16;;;;;;;12.90;4.57;;;24.20;99.90;;;;;;5054594;28;20181;-49
2022/08/22 08:05:43;;;;;;;8.98;3.72;;;24.20;99.90;;;;;;5054599;28;20175;-44
2022/08/22 08:08:44;;;;;;;5.03;3.67;;;24.20;99.90;;;;;;5054719;28;20181;-48
2022/08/22 08:11:13;;;;;;;9.13;3.85;;;24.70;99.90;;;;;;5032162;28;20174;-45
2022/08/22 08:13:44;;;;;;;7.95;3.45;;;24.80;99.90;;;;;;5050285;28;20230;-46
2022/08/22 08:16:23;;;;;;;9.57;3.00;;;24.70;99.90;;;;;;5054087;28;20198;-45
2022/08/22 08:18:51;;;;;;;7.78;3.60;;;24.90;99.90;;;;;;5054098;28;20551;-47
2022/08/22 08:21:51;;;;;;;8.68;3.25;;;25.00;99.90;;;;;;5053997;28;20162;-48
2022/08/22 08:24:22;;;;;;;6.50;2.88;;;25.10;99.90;;;;;;5054335;28;20572;-47
2022/08/22 08:29:54;;;;;;;7.07;2.50;;;25.30;99.90;;;;;;5054277;28;20261;-50
2022/08/22 08:32:23;;;;;;;7.90;2.70;;;25.50;99.90;;;;;;5053914;28;20653;-49
2022/08/22 08:34:50;;;;;;;6.32;2.53;;;25.50;99.90;;;;;;5053726;28;20692;-48
2022/08/22 08:37:25;;;;;;;5.72;2.72;;;25.60;99.90;;;;;;5053874;28;20196;-47
2022/08/22 08:39:55;;;;;;;4.93;2.38;;;25.60;99.90;;;;;;5053704;28;20249;-49
2022/08/22 08:46:06;;;;;;;5.00;2.30;;;25.70;99.90;;;;;;5053477;28;20255;-51
2022/08/22 08:48:57;;;;;;;5.95;2.20;;;25.50;99.90;;;;;;5053599;28;20174;-52
2022/08/22 08:51:47;;;;;;;8.00;2.47;;;25.30;99.90;;;;;;5053583;28;20158;-50
2022/08/22 08:54:22;;;;;;;5.57;2.25;;;25.30;99.90;;;;;;5053174;28;20178;-50
2022/08/22 08:57:15;;;;;;;7.35;1.92;;;25.20;99.90;;;;;;5053427;28;20165;-52
2022/08/22 09:00:13;;;;;;;5.47;2.20;;;25.20;99.90;;;;;;5053313;28;20212;-53
2022/08/22 09:03:16;;;;;;;6.88;2.60;;;25.00;99.90;;;;;;5053325;28;20185;-50
2022/08/22 09:06:00;;;;;;;3.30;2.05;;;25.20;99.90;;;;;;5053351;28;20566;-45
2022/08/22 09:08:52;;;;;;;5.35;2.00;;;25.20;99.90;;;;;;5052909;28;20174;-47
2022/08/22 09:11:30;;;;;;;4.50;2.55;;;25.30;99.90;;;;;;5053245;28;20174;-49
2022/08/22 09:14:26;;;;;;;5.05;2.33;;;25.50;99.90;;;;;;5052500;28;20226;-50
2022/08/22 09:17:24;;;;;;;4.53;2.15;;;25.60;99.90;;;;;;5053025;28;20205;-50
2022/08/22 09:19:55;;;;;;;4.53;2.85;;;25.80;99.90;;;;;;5053169;28;20201;-51
2022/08/22 09:22:59;;;;;;;4.90;2.10;;;25.90;99.90;;;;;;5052828;28;20169;-50
2022/08/22 09:25:35;;;;;;;4.40;1.90;;;25.90;99.90;;;;;;5052793;28;20180;-51
2022/08/22 09:28:09;;;;;;;7.72;2.63;;;26.10;99.90;;;;;;5052731;28;20165;-52
2022/08/22 09:30:55;;;;;;;3.72;1.95;;;26.20;99.90;;;;;;5052656;28;20166;-51
2022/08/22 09:33:32;;;;;;;4.75;1.83;;;26.30;99.90;;;;;;5048783;28;20186;-51
2022/08/22 09:36:26;;;;;;;4.60;2.25;;;26.50;99.90;;;;;;5052530;28;20292;-50
2022/08/22 09:39:15;;;;;;;5.53;2.45;;;26.70;99.90;;;;;;5052284;28;20249;-52
2022/08/22 09:42:01;;;;;;;2.53;2.15;;;26.80;99.90;;;;;;5052512;28;20170;-51
2022/08/22 09:44:29;;;;;;;5.00;2.20;;;27.00;99.90;;;;;;5052428;28;20154;-51
2022/08/22 09:47:14;;;;;;;7.95;2.72;;;27.30;99.90;;;;;;5052150;28;20258;-48
2022/08/22 09:49:49;;;;;;;2.10;1.90;;;27.40;99.90;;;;;;5052604;28;20162;-52
2022/08/22 09:52:44;;;;;;;4.88;2.20;;;27.80;99.90;;;;;;5052421;28;20170;-51
2022/08/22 09:55:50;;;;;;;6.05;2.20;;;28.30;99.90;;;;;;5033035;28;20214;-50
2022/08/22 09:58:26;;;;;;;6.50;2.08;;;28.10;99.90;;;;;;5052219;28;20155;-51
2022/08/22 10:00:58;;;;;;;5.55;2.38;;;27.80;99.90;;;;;;5051811;28;20170;-51
2022/08/22 10:03:31;;;;;;;8.82;1.98;;;27.80;99.90;;;;;;5050843;28;20653;-52
2022/08/22 10:06:39;;;;;;;6.60;2.20;;;27.80;99.90;;;;;;5051900;28;20177;-50
2022/08/22 10:09:10;;;;;;;6.32;2.08;;;27.90;99.90;;;;;;5041796;28;20177;-47
2022/08/22 10:11:46;;;;;;;4.35;2.10;;;27.90;99.90;;;;;;5052425;28;20170;-52
2022/08/22 10:14:20;;;;;;;8.45;2.20;;;28.00;99.90;;;;;;5051152;28;20269;-50
2022/08/22 10:16:56;;;;;;;4.30;2.05;;;27.90;99.90;;;;;;5051672;28;20174;-51
2022/08/22 10:19:34;;;;;;;8.63;2.05;;;27.80;99.90;;;;;;5051532;28;20168;-48
2022/08/22 10:22:38;;;;;;;7.45;2.22;;;27.90;99.90;;;;;;5051573;28;20197;-51
2022/08/22 10:25:36;;;;;;;3.20;1.88;;;27.80;99.90;;;;;;5051737;28;20703;-49
2022/08/22 10:28:13;;;;;;;4.60;2.03;;;27.80;99.90;;;;;;5051136;28;20166;-49
2022/08/22 10:30:48;;;;;;;2.47;1.55;;;27.80;99.90;;;;;;5051963;28;20158;-51
2022/08/22 10:33:23;;;;;;;4.30;2.00;;;27.60;97.70;;;;;;5051983;28;20177;-50
2022/08/22 10:36:16;;;;;;;3.08;1.73;;;27.70;98.00;;;;;;5051352;28;20562;-52
2022/08/22 10:38:57;;;;;;;2.75;1.80;;;27.90;98.20;;;;;;5051956;28;20245;-53
2022/08/22 10:41:29;;;;;;;2.83;2.05;;;27.80;96.30;;;;;;5051772;28;20165;-48
2022/08/22 10:44:08;;;;;;;3.80;2.00;;;28.00;97.30;;;;;;5051789;28;20161;-51
2022/08/22 10:46:38;;;;;;;2.33;1.75;;;28.00;98.80;;;;;;5051362;28;20170;-52
2022/08/22 10:49:23;;;;;;;4.13;1.83;;;28.20;97.70;;;;;;5051719;28;20169;-53
2022/08/22 10:52:03;;;;;;;3.03;2.10;;;28.20;96.80;;;;;;5051531;28;20165;-51
2022/08/22 10:54:50;;;;;;;4.20;2.17;;;28.30;96.40;;;;;;5051415;28;20170;-52
2022/08/22 10:57:24;;;;;;;4.93;2.17;;;28.20;95.90;;;;;;5051752;28;20162;-50
2022/08/22 10:59:50;;;;;;;3.40;2.15;;;28.70;93.80;;;;;;5050402;28;20497;-53
2022/08/22 11:02:35;;;;;;;3.10;1.70;;;29.20;94.40;;;;;;5051129;28;20215;-53
2022/08/22 11:05:31;;;;;;;5.45;2.22;;;29.50;94.00;;;;;;5051404;28;20526;-50
2022/08/22 11:08:06;;;;;;;4.75;2.13;;;28.90;93.40;;;;;;5051392;28;20220;-54
2022/08/22 11:10:31;;;;;;;6.00;2.20;;;29.30;93.70;;;;;;5051672;28;20169;-52
2022/08/22 11:13:12;;;;;;;4.15;2.00;;;29.40;92.80;;;;;;5050960;28;20225;-52
2022/08/22 11:15:49;;;;;;;4.35;2.20;;;29.60;92.00;;;;;;5051897;28;20301;-49
2022/08/22 11:18:36;;;;;;;8.50;2.17;;;29.80;92.40;;;;;;5050143;28;20200;-53
2022/08/22 11:21:42;;;;;;;2.50;2.00;;;29.60;92.40;;;;;;5051543;28;20184;-51
2022/08/22 11:24:32;;;;;;;3.85;2.13;;;29.90;91.90;;;;;;5051348;28;20169;-47
2022/08/22 11:27:19;;;;;;;6.45;2.00;;;30.10;90.90;;;;;;5054258;28;20162;-46
2022/08/22 11:29:58;;;;;;;4.55;2.20;;;30.50;91.20;;;;;;5054811;28;20200;-52
2022/08/22 11:32:26;;;;;;;3.28;2.00;;;30.50;90.80;;;;;;5054650;28;20244;-50
2022/08/22 11:35:06;;;;;;;3.83;2.55;;;30.50;91.30;;;;;;5054671;28;20552;-49
2022/08/22 11:37:41;;;;;;;4.72;2.20;;;30.50;88.80;;;;;;5054834;28;20224;-48
2022/08/22 11:40:34;;;;;;;6.20;2.35;;;30.20;90.10;;;;;;5054650;28;20157;-50
2022/08/22 11:43:19;;;;;;;3.63;2.00;;;30.00;89.40;;;;;;5054649;28;20166;-51
2022/08/22 11:45:50;;;;;;;3.42;1.88;;;29.80;89.20;;;;;;5054613;28;20316;-50
2022/08/22 11:48:18;;;;;;;3.35;2.20;;;29.50;89.60;;;;;;5053268;28;20579;-47
2022/08/22 11:50:59;;;;;;;6.07;2.50;;;29.40;88.20;;;;;;5054405;28;20202;-47
2022/08/22 11:53:33;;;;;;;3.20;2.22;;;29.50;90.00;;;;;;5052874;28;20539;-50
2022/08/22 11:56:27;;;;;;;3.58;1.65;;;29.50;88.70;;;;;;5053910;28;20288;-48
2022/08/22 11:59:01;;;;;;;7.30;2.30;;;29.60;89.70;;;;;;5054173;28;20170;-49
2022/08/22 12:01:54;;;;;;;6.38;2.13;;;29.60;90.60;;;;;;5054353;28;20479;-48
2022/08/22 12:04:34;;;;;;;3.47;1.90;;;29.70;90.60;;;;;;5054183;28;20167;-51
2022/08/22 12:07:17;;;;;;;3.33;1.80;;;29.60;88.90;;;;;;5054106;28;20208;-48
2022/08/22 12:10:03;;;;;;;3.72;2.10;;;29.70;88.70;;;;;;5054031;28;20192;-52
2022/08/22 12:12:37;;;;;;;4.95;2.08;;;29.90;90.60;;;;;;5053960;28;20295;-52
2022/08/22 12:15:16;;;;;;;4.72;2.33;;;29.80;91.50;;;;;;5053936;28;20217;-47
2022/08/22 12:18:03;;;;;;;5.05;2.05;;;29.80;91.60;;;;;;5054048;28;20173;-50
2022/08/22 12:20:47;;;;;;;8.85;2.67;;;30.00;91.40;;;;;;5054137;28;20181;-51
2022/08/22 12:23:31;;;;;;;5.35;2.10;;;29.90;91.10;;;;;;5053793;28;20197;-45
2022/08/22 12:26:15;;;;;;;4.63;2.20;;;29.80;90.60;;;;;;5053778;28;20250;-49
2022/08/22 12:28:49;;;;;;;10.65;3.38;;;29.50;91.20;;;;;;5053768;28;20204;-50
2022/08/22 12:31:32;;;;;;;4.53;2.50;;;29.60;90.90;;;;;;5053727;28;20162;-51
2022/08/22 12:34:06;;;;;;;6.28;2.45;;;29.40;91.00;;;;;;5053159;28;20525;-52
2022/08/22 12:36:43;;;;;;;6.25;2.45;;;29.30;90.80;;;;;;5052721;28;20568;-47
2022/08/22 12:39:39;;;;;;;5.43;2.50;;;29.10;90.10;;;;;;5053543;28;20249;-52
2022/08/22 12:42:26;;;;;;;4.03;2.10;;;29.30;90.20;;;;;;5053338;28;20529;-49
2022/08/22 12:45:30;;;;;;;5.28;2.50;;;29.40;90.00;;;;;;5053170;28;20162;-52
2022/08/22 12:48:17;;;;;;;5.97;2.30;;;29.50;90.90;;;;;;5053491;28;20180;-54
2022/08/22 12:51:10;;;;;;;10.50;2.28;;;29.60;90.60;;;;;;5053319;28;20176;-53
2022/08/22 12:53:54;;;;;;;5.32;2.38;;;29.80;91.10;;;;;;5053351;28;20233;-50
2022/08/22 12:56:48;;;;;;;6.35;2.45;;;29.70;91.80;;;;;;5053464;28;20312;-54
2022/08/22 12:59:32;;;;;;;7.82;2.35;;;29.70;91.30;;;;;;5053157;28;20234;-51
2022/08/22 13:02:10;;;;;;;5.55;2.20;;;29.70;92.70;;;;;;5053369;28;20169;-53
2022/08/22 13:05:04;;;;;;;3.55;2.03;;;29.70;91.60;;;;;;5053344;28;20272;-52
2022/08/22 13:07:35;;;;;;;4.07;2.00;;;29.60;91.20;;;;;;5053052;28;20196;-54
2022/08/22 13:10:22;;;;;;;4.75;2.25;;;29.70;92.30;;;;;;5053237;28;20166;-52
2022/08/22 13:12:51;;;;;;;3.83;2.38;;;29.70;91.50;;;;;;5053021;28;20218;-54
2022/08/22 13:15:20;;;;;;;3.83;2.30;;;29.70;90.40;;;;;;5053036;28;20216;-54
2022/08/22 13:17:49;;;;;;;6.38;2.15;;;29.80;91.50;;;;;;5052934;28;20163;-51
2022/08/22 13:20:25;;;;;;;4.18;2.08;;;29.90;91.10;;;;;;5051731;28;20185;-53
2022/08/22 13:22:52;;;;;;;8.57;2.20;;;29.70;91.50;;;;;;5052861;28;20174;-53
2022/08/22 13:25:20;;;;;;;5.72;1.77;;;29.80;91.50;;;;;;5053096;28;20227;-51
2022/08/22 13:27:49;;;;;;;5.25;2.30;;;29.80;90.90;;;;;;5052893;28;20525;-53
2022/08/22 13:30:34;;;;;;;6.40;2.58;;;29.80;90.20;;;;;;5052598;28;20649;-52
2022/08/22 13:33:09;;;;;;;6.45;2.08;;;29.70;90.60;;;;;;5052371;28;20208;-54
2022/08/22 13:35:44;;;;;;;8.02;2.60;;;29.80;90.00;;;;;;5053132;28;20232;-52
2022/08/22 13:38:22;;;;;;;2.80;1.88;;;30.10;91.00;;;;;;5052764;28;20181;-53
2022/08/22 13:40:50;;;;;;;3.83;2.22;;;30.00;90.00;;;;;;5052551;28;20188;-52
2022/08/22 13:43:21;;;;;;;3.35;2.10;;;29.80;89.30;;;;;;5052682;28;20594;-53
2022/08/22 13:45:54;;;;;;;5.93;2.30;;;30.00;90.00;;;;;;5052388;28;20158;-53
2022/08/22 13:48:24;;;;;;;3.38;2.20;;;30.00;90.50;;;;;;5052354;28;20162;-54
2022/08/22 13:51:08;;;;;;;6.18;1.88;;;29.70;88.10;;;;;;5052490;28;20178;-54
2022/08/22 13:53:43;;;;;;;3.53;2.13;;;29.60;89.30;;;;;;5052720;28;20217;-54
2022/08/22 13:56:19;;;;;;;5.45;1.95;;;29.90;88.50;;;;;;5052668;28;20704;-54
2022/08/22 13:58:48;;;;;;;4.78;2.20;;;29.90;86.60;;;;;;5052554;28;20182;-54
2022/08/22 14:01:33;;;;;;;4.43;2.33;;;30.00;89.10;;;;;;5052342;28;20308;-54